Time;durP1;ratioP1;P1;durP2;ratioP2;P2;SDS_P1;SDS_P2;PMS_P1;PMS_P2;Temp;Humidity;BMP_temperature;BMP_pressure;BME280_temperature;BME280_humidity;BME280_pressure;Samples;Min_cycle;Max_cycle;Signal;HPM_P1;HPM_P2
2022/05/31 00:00:43;;;;;;;1.92;1.80;;;;;20.90;100300.00;;;;2069617;28;20210;-58
2022/05/31 00:01:43;;;;;;;2.17;1.97;;;;;20.90;100302.00;;;;2070545;28;20295;-57
2022/05/31 00:02:44;;;;;;;2.03;1.90;;;;;20.90;100296.00;;;;2069621;28;20250;-57
2022/05/31 00:03:44;;;;;;;1.70;1.60;;;;;20.90;100301.00;;;;2069689;28;20288;-59
2022/05/31 00:04:46;;;;;;;2.13;1.97;;;;;20.90;100296.00;;;;2077287;28;20578;-58
2022/05/31 00:05:46;;;;;;;2.03;1.83;;;;;20.90;100293.00;;;;2077647;28;20228;-58
2022/05/31 00:06:46;;;;;;;2.20;2.00;;;;;20.90;100293.00;;;;2077642;28;20240;-58
2022/05/31 00:07:47;;;;;;;2.27;1.90;;;;;20.90;100296.00;;;;2077768;28;20214;-57
2022/05/31 00:08:47;;;;;;;2.17;1.97;;;;;20.90;100297.00;;;;2076812;28;20276;-57
2022/05/31 00:09:47;;;;;;;2.10;2.00;;;;;20.90;100292.00;;;;2076628;28;20205;-57
2022/05/31 00:10:47;;;;;;;2.70;1.73;;;;;20.90;100293.00;;;;2077457;28;20209;-57
2022/05/31 00:11:48;;;;;;;2.20;2.00;;;;;20.90;100294.00;;;;2077768;28;20295;-58
2022/05/31 00:12:48;;;;;;;2.37;2.17;;;;;20.90;100288.00;;;;2077603;28;20213;-57
2022/05/31 00:13:49;;;;;;;2.27;2.07;;;;;20.90;100294.00;;;;2076961;28;20218;-58
2022/05/31 00:14:49;;;;;;;2.20;1.97;;;;;20.90;100292.00;;;;2077018;28;20221;-57
2022/05/31 00:15:50;;;;;;;1.90;1.80;;;;;20.90;100288.00;;;;2077739;28;20220;-57
2022/05/31 00:16:50;;;;;;;1.63;1.53;;;;;20.90;100287.00;;;;2078285;28;20224;-58
2022/05/31 00:17:51;;;;;;;2.00;1.90;;;;;20.90;100283.00;;;;2078714;28;20212;-58
2022/05/31 00:18:52;;;;;;;1.88;1.77;;;;;20.90;100288.00;;;;2079120;28;20705;-57
2022/05/31 00:19:52;;;;;;;2.23;2.03;;;;;20.90;100286.00;;;;2079372;28;20202;-57
2022/05/31 00:20:52;;;;;;;1.77;1.67;;;;;20.90;100288.00;;;;2071279;28;20202;-57
2022/05/31 00:22:17;;;;;;;1.93;1.83;;;;;20.90;100285.00;;;;2079316;28;20209;-58
2022/05/31 00:23:18;;;;;;;2.03;1.90;;;;;20.90;100278.00;;;;2078886;28;20270;-57
2022/05/31 00:24:20;;;;;;;2.60;2.40;;;;;20.90;100285.00;;;;2072541;28;20218;-57
2022/05/31 00:25:20;;;;;;;2.33;2.13;;;;;20.90;100284.00;;;;2070423;28;20241;-58
2022/05/31 00:26:21;;;;;;;2.10;1.87;;;;;20.80;100288.00;;;;2070144;28;20679;-58
2022/05/31 00:27:22;;;;;;;2.10;1.90;;;;;20.90;100276.00;;;;2078840;28;20248;-57
2022/05/31 00:28:24;;;;;;;1.88;1.77;;;;;20.90;100280.00;;;;2078733;28;20212;-58
2022/05/31 00:29:24;;;;;;;2.25;2.05;;;;;20.90;100277.00;;;;2071033;28;20237;-57
2022/05/31 00:30:24;;;;;;;2.13;1.93;;;;;20.90;100286.00;;;;2079195;28;20217;-58
2022/05/31 00:31:25;;;;;;;2.27;2.10;;;;;20.90;100282.00;;;;2079902;28;20213;-58
2022/05/31 00:32:30;;;;;;;2.00;1.90;;;;;20.90;100289.00;;;;2076583;28;20271;-58
2022/05/31 00:33:31;;;;;;;2.30;2.10;;;;;20.90;100278.00;;;;2070251;28;20566;-58
2022/05/31 00:34:31;;;;;;;2.07;1.97;;;;;20.90;100283.00;;;;2071673;28;20210;-58
2022/05/31 00:35:33;;;;;;;1.67;1.57;;;;;20.90;100273.00;;;;2060234;28;20246;-58
2022/05/31 00:36:35;;;;;;;1.80;1.70;;;;;20.80;100263.00;;;;2061583;28;20711;-58
2022/05/31 00:37:35;;;;;;;2.10;2.00;;;;;20.90;100274.00;;;;2070883;28;20222;-58
2022/05/31 00:38:35;;;;;;;1.83;1.73;;;;;20.90;100269.00;;;;2063522;28;20211;-57
2022/05/31 00:39:36;;;;;;;1.97;1.87;;;;;20.90;100264.00;;;;2079108;28;21223;-57
2022/05/31 00:40:37;;;;;;;2.13;2.00;;;;;20.90;100267.00;;;;2079827;28;20260;-57
2022/05/31 00:41:39;;;;;;;1.90;1.77;;;;;20.90;100269.00;;;;2079762;28;20225;-57
2022/05/31 00:42:59;;;;;;;2.60;2.08;;;;;20.80;100276.00;;;;2078871;28;20515;-58
2022/05/31 00:44:04;;;;;;;2.13;1.92;;;;;20.90;100271.00;;;;2079051;28;20210;-57
2022/05/31 00:45:05;;;;;;;1.95;1.80;;;;;20.90;100273.00;;;;2063556;28;20577;-57
2022/05/31 00:46:05;;;;;;;2.67;1.93;;;;;20.90;100278.00;;;;2070067;28;20233;-57
2022/05/31 00:47:27;;;;;;;2.33;2.13;;;;;20.80;100281.00;;;;2078774;28;20232;-57
2022/05/31 00:48:31;;;;;;;1.83;1.73;;;;;20.80;100281.00;;;;2078573;28;20735;-57
2022/05/31 00:49:35;;;;;;;2.10;2.00;;;;;20.80;100277.00;;;;2078832;28;20655;-57
2022/05/31 00:50:44;;;;;;;2.35;2.15;;;;;20.80;100279.00;;;;2071419;28;20914;-57
2022/05/31 00:51:47;;;;;;;2.10;1.90;;;;;20.90;100276.00;;;;2072053;28;20902;-57
2022/05/31 00:52:49;;;;;;;2.40;2.20;;;;;20.80;100273.00;;;;2078938;28;20296;-58
2022/05/31 00:53:54;;;;;;;2.35;2.15;;;;;20.90;100280.00;;;;2079052;28;20267;-58
2022/05/31 00:55:22;;;;;;;2.15;1.95;;;;;20.90;100272.00;;;;2071297;28;20316;-57
2022/05/31 00:56:26;;;;;;;2.00;1.90;;;;;20.80;100249.00;;;;2070356;28;20272;-57
2022/05/31 00:57:27;;;;;;;2.00;1.90;;;;;20.80;100265.00;;;;2062863;28;20688;-58
2022/05/31 00:58:34;;;;;;;2.10;1.90;;;;;20.90;100271.00;;;;2051784;28;20215;-57
2022/05/31 00:59:40;;;;;;;2.40;2.20;;;;;20.80;100273.00;;;;2055493;28;20234;-57
2022/05/31 01:00:41;;;;;;;2.17;2.00;;;;;20.90;100265.00;;;;2063500;28;20218;-57
2022/05/31 01:01:42;;;;;;;2.30;2.10;;;;;20.80;100269.00;;;;2062692;28;20223;-57
2022/05/31 01:02:43;;;;;;;1.92;1.83;;;;;20.80;100272.00;;;;2062962;28;20223;-58
2022/05/31 01:03:44;;;;;;;1.88;1.77;;;;;20.90;100277.00;;;;2062523;28;20218;-57
2022/05/31 01:04:55;;;;;;;2.27;2.07;;;;;20.80;100269.00;;;;2059088;28;20294;-58
2022/05/31 01:05:55;;;;;;;1.80;1.70;;;;;20.80;100273.00;;;;2063339;28;20671;-56
2022/05/31 01:06:56;;;;;;;1.83;1.73;;;;;20.80;100269.00;;;;2071998;28;20226;-57
2022/05/31 01:07:56;;;;;;;1.80;1.70;;;;;20.80;100271.00;;;;2071409;28;20214;-57
2022/05/31 01:08:57;;;;;;;2.20;2.00;;;;;20.80;100269.00;;;;2070814;28;20318;-57
2022/05/31 01:09:57;;;;;;;2.23;2.13;;;;;20.80;100271.00;;;;2078615;28;20228;-58
2022/05/31 01:10:58;;;;;;;2.33;2.07;;;;;20.80;100273.00;;;;2070892;28;20289;-57
2022/05/31 01:11:58;;;;;;;2.30;2.10;;;;;20.80;100273.00;;;;2066110;28;20706;-57
2022/05/31 01:12:58;;;;;;;2.27;2.07;;;;;20.80;100273.00;;;;2070710;28;21068;-56
2022/05/31 01:13:59;;;;;;;2.27;2.00;;;;;20.80;100275.00;;;;2062769;28;20223;-56
2022/05/31 01:14:59;;;;;;;2.27;1.90;;;;;20.80;100278.00;;;;2062343;28;20226;-55
2022/05/31 01:16:04;;;;;;;2.20;2.00;;;;;20.80;100271.00;;;;2070529;28;20248;-56
2022/05/31 01:17:07;;;;;;;2.22;2.05;;;;;20.80;100283.00;;;;2072895;28;20633;-56
2022/05/31 01:18:08;;;;;;;1.80;1.70;;;;;20.80;100278.00;;;;2070607;28;20213;-58
2022/05/31 01:19:55;;;;;;;2.07;1.87;;;;;20.80;100273.00;;;;2062678;28;20752;-56
2022/05/31 01:20:28;;;;;;;2.10;1.90;;;;;20.80;100268.00;;;;2078777;28;20212;-57
2022/05/31 01:21:29;;;;;;;1.93;1.83;;;;;20.80;100277.00;;;;2079439;28;20770;-58
2022/05/31 01:22:29;;;;;;;2.20;2.00;;;;;20.80;100278.00;;;;2079654;28;20268;-55
2022/05/31 01:23:32;;;;;;;1.97;1.77;;;;;20.80;100277.00;;;;2077234;28;20287;-56
2022/05/31 01:24:41;;;;;;;2.75;2.05;;;;;20.80;100274.00;;;;2070632;28;20301;-58
2022/05/31 01:25:58;;;;;;;2.00;1.90;;;;;20.80;100268.00;;;;2070939;28;20210;-56
2022/05/31 01:27:03;;;;;;;1.70;1.60;;;;;20.80;100267.00;;;;2072606;28;20698;-57
2022/05/31 01:28:14;;;;;;;2.20;1.92;;;;;20.80;100270.00;;;;2078817;28;20308;-56
2022/05/31 01:29:21;;;;;;;2.50;2.30;;;;;20.80;100271.00;;;;2078760;28;20225;-57
2022/05/31 01:30:22;;;;;;;3.58;1.95;;;;;20.80;100274.00;;;;2078462;28;20316;-57
2022/05/31 01:31:57;;;;;;;2.20;1.90;;;;;20.80;100275.00;;;;2078815;28;20589;-56
2022/05/31 01:33:06;;;;;;;2.03;1.92;;;;;20.80;100267.00;;;;2043090;28;20226;-57
2022/05/31 01:34:29;;;;;;;1.90;1.80;;;;;20.80;100267.00;;;;2046996;28;20219;-56
2022/05/31 01:35:31;;;;;;;2.00;1.90;;;;;20.80;100264.00;;;;2050514;28;20217;-57
2022/05/31 01:36:36;;;;;;;1.67;1.58;;;;;20.80;100266.00;;;;2063376;28;20273;-57
2022/05/31 01:37:40;;;;;;;1.77;1.67;;;;;20.80;100266.00;;;;2061840;28;20210;-58
2022/05/31 01:39:08;;;;;;;2.10;1.90;;;;;20.60;100253.00;;;;2055761;28;20235;-56
2022/05/31 01:40:11;;;;;;;2.30;2.10;;;;;20.80;100250.00;;;;2063699;28;20205;-57
2022/05/31 01:41:32;;;;;;;2.25;2.05;;;;;20.80;100260.00;;;;2058046;28;20215;-58
2022/05/31 01:42:42;;;;;;;1.75;1.65;;;;;20.80;100266.00;;;;2051695;28;20264;-56
2022/05/31 01:43:43;;;;;;;2.20;2.00;;;;;20.80;100268.00;;;;2049693;28;20700;-58
2022/05/31 01:44:48;;;;;;;2.50;2.30;;;;;20.80;100273.00;;;;2062488;28;20222;-57
2022/05/31 01:45:58;;;;;;;2.55;1.73;;;;;20.80;100266.00;;;;2059081;28;20478;-57
2022/05/31 01:46:59;;;;;;;2.40;2.20;;;;;20.80;100266.00;;;;2063676;28;20638;-56
2022/05/31 01:48:01;;;;;;;1.97;1.87;;;;;20.80;100259.00;;;;2062474;28;20513;-57
2022/05/31 01:49:06;;;;;;;2.22;2.03;;;;;20.80;100259.00;;;;2062472;28;20222;-57
2022/05/31 01:50:09;;;;;;;1.92;1.83;;;;;20.80;100259.00;;;;2069763;28;20582;-58
2022/05/31 01:51:11;;;;;;;2.30;2.10;;;;;20.80;100257.00;;;;2070326;28;20668;-56
2022/05/31 01:52:11;;;;;;;1.90;1.80;;;;;20.80;100249.00;;;;2070808;28;20210;-57
2022/05/31 01:53:11;;;;;;;2.30;2.10;;;;;20.80;100251.00;;;;2062071;28;20211;-57
2022/05/31 01:54:13;;;;;;;1.73;1.60;;;;;20.80;100259.00;;;;2062392;28;20437;-58
2022/05/31 01:55:13;;;;;;;1.98;1.88;;;;;20.80;100254.00;;;;2054477;28;20238;-57
2022/05/31 01:56:14;;;;;;;1.70;1.60;;;;;20.80;100250.00;;;;2045791;28;20219;-57
2022/05/31 01:57:15;;;;;;;1.90;1.80;;;;;20.80;100244.00;;;;2052948;28;20219;-57
2022/05/31 01:58:20;;;;;;;2.07;1.87;;;;;20.80;100249.00;;;;2054219;28;20307;-57
2022/05/31 01:59:21;;;;;;;1.80;1.70;;;;;20.80;100239.00;;;;2047625;28;20526;-55
2022/05/31 02:00:21;;;;;;;2.00;1.90;;;;;20.80;100250.00;;;;2060089;28;20223;-56
2022/05/31 02:01:21;;;;;;;2.37;2.10;;;;;20.80;100244.00;;;;2078609;28;20228;-57
2022/05/31 02:02:22;;;;;;;2.20;2.00;;;;;20.80;100252.00;;;;2070351;28;20214;-59
2022/05/31 02:03:22;;;;;;;1.80;1.70;;;;;20.80;100238.00;;;;2062567;28;20769;-57
2022/05/31 02:04:22;;;;;;;2.00;1.80;;;;;20.80;100246.00;;;;2062204;28;20712;-57
2022/05/31 02:05:23;;;;;;;1.63;1.53;;;;;20.80;100251.00;;;;2061641;28;20706;-57
2022/05/31 02:06:29;;;;;;;2.10;1.90;;;;;20.80;100238.00;;;;2054431;28;20715;-55
2022/05/31 02:07:30;;;;;;;1.80;1.70;;;;;20.80;100241.00;;;;2070004;28;20272;-55
2022/05/31 02:08:31;;;;;;;1.88;1.77;;;;;20.80;100247.00;;;;2074295;28;20623;-57
2022/05/31 02:09:31;;;;;;;1.90;1.80;;;;;20.80;100252.00;;;;2078658;28;20217;-58
2022/05/31 02:10:32;;;;;;;1.87;1.77;;;;;20.80;100221.00;;;;2079118;28;20213;-59
2022/05/31 02:11:32;;;;;;;2.57;2.30;;;;;20.80;100246.00;;;;2080113;28;20240;-57
2022/05/31 02:12:33;;;;;;;1.97;1.77;;;;;20.80;100249.00;;;;2071303;28;20535;-57
2022/05/31 02:13:34;;;;;;;2.10;2.00;;;;;20.80;100247.00;;;;2070953;28;20203;-57
2022/05/31 02:14:34;;;;;;;2.10;2.00;;;;;20.80;100244.00;;;;2087632;28;20209;-60
2022/05/31 02:15:34;;;;;;;1.87;1.77;;;;;20.80;100244.00;;;;2079134;28;20529;-57
2022/05/31 02:16:35;;;;;;;1.80;1.70;;;;;20.80;100247.00;;;;2055167;28;20630;-57
2022/05/31 02:17:35;;;;;;;2.00;1.90;;;;;20.80;100243.00;;;;2059384;28;20208;-57
2022/05/31 02:19:54;;;;;;;2.20;2.00;;;;;20.80;100245.00;;;;2071228;28;20230;-58
2022/05/31 02:20:55;;;;;;;2.20;2.00;;;;;20.80;100236.00;;;;2069063;28;20315;-57
2022/05/31 02:21:57;;;;;;;1.80;1.70;;;;;20.80;100248.00;;;;2071151;28;20217;-57
2022/05/31 02:22:57;;;;;;;1.92;1.83;;;;;20.80;100239.00;;;;2071163;28;20364;-57
2022/05/31 02:23:57;;;;;;;2.10;1.90;;;;;20.80;100242.00;;;;2072394;28;20225;-57
2022/05/31 02:24:58;;;;;;;1.60;1.50;;;;;20.70;100243.00;;;;2074758;28;20222;-57
2022/05/31 02:25:59;;;;;;;1.70;1.60;;;;;20.80;100222.00;;;;2071233;28;20206;-55
2022/05/31 02:26:59;;;;;;;2.37;1.83;;;;;20.80;100238.00;;;;2071107;28;20218;-58
2022/05/31 02:28:00;;;;;;;2.00;1.90;;;;;20.80;100239.00;;;;2063145;28;20861;-56
2022/05/31 02:29:00;;;;;;;1.90;1.80;;;;;20.80;100232.00;;;;2074872;28;20476;-58
2022/05/31 02:30:01;;;;;;;2.00;1.90;;;;;20.80;100239.00;;;;2062954;28;20219;-61
2022/05/31 02:31:01;;;;;;;1.80;1.70;;;;;20.80;100238.00;;;;2055018;28;20250;-58
2022/05/31 02:32:03;;;;;;;1.93;1.83;;;;;20.80;100234.00;;;;2071192;28;20206;-57
2022/05/31 02:33:03;;;;;;;2.25;2.05;;;;;20.80;100233.00;;;;2077365;28;20217;-58
2022/05/31 02:34:04;;;;;;;2.27;2.07;;;;;20.80;100246.00;;;;2078116;28;20721;-58
2022/05/31 02:35:05;;;;;;;2.17;1.77;;;;;20.80;100237.00;;;;2079090;28;20209;-57
2022/05/31 02:36:05;;;;;;;2.47;2.17;;;;;20.80;100234.00;;;;2070107;28;20230;-59
2022/05/31 02:37:05;;;;;;;2.07;1.97;;;;;20.80;100233.00;;;;2070074;28;20944;-58
2022/05/31 02:38:06;;;;;;;2.40;2.20;;;;;20.80;100225.00;;;;2077892;28;20214;-57
2022/05/31 02:39:06;;;;;;;1.70;1.60;;;;;20.70;100235.00;;;;2078369;28;20236;-56
2022/05/31 02:40:07;;;;;;;1.80;1.70;;;;;20.80;100225.00;;;;2055145;28;20216;-56
2022/05/31 02:41:07;;;;;;;1.90;1.80;;;;;20.70;100225.00;;;;2055093;28;20212;-58
2022/05/31 02:42:08;;;;;;;1.90;1.67;;;;;20.70;100226.00;;;;2071043;28;20453;-57
2022/05/31 02:43:09;;;;;;;2.20;2.10;;;;;20.70;100224.00;;;;2065845;28;20206;-56
2022/05/31 02:44:09;;;;;;;2.03;1.93;;;;;20.80;100228.00;;;;2071030;28;20206;-57
2022/05/31 02:45:10;;;;;;;1.90;1.80;;;;;20.70;100218.00;;;;2070844;28;20689;-59
2022/05/31 02:46:10;;;;;;;2.80;2.10;;;;;20.70;100215.00;;;;2062638;28;20218;-60
2022/05/31 02:47:11;;;;;;;2.10;2.00;;;;;20.80;100219.00;;;;2073731;28;20263;-59
2022/05/31 02:48:11;;;;;;;2.30;2.10;;;;;20.70;100218.00;;;;2079176;28;20216;-58
2022/05/31 02:49:11;;;;;;;2.50;1.97;;;;;20.70;100216.00;;;;2079248;28;20217;-57
2022/05/31 02:50:12;;;;;;;2.27;2.10;;;;;20.70;100216.00;;;;2078811;28;20210;-61
2022/05/31 02:51:12;;;;;;;2.10;1.90;;;;;20.70;100218.00;;;;2079039;28;20210;-57
2022/05/31 02:52:12;;;;;;;1.70;1.60;;;;;20.70;100194.00;;;;2079166;28;20201;-57
2022/05/31 02:53:13;;;;;;;2.00;1.90;;;;;20.70;100215.00;;;;2079168;28;20209;-57
2022/05/31 02:54:14;;;;;;;2.20;2.10;;;;;20.50;100210.00;;;;2079189;28;20205;-56
2022/05/31 02:55:14;;;;;;;1.67;1.58;;;;;20.70;100217.00;;;;2079158;28;20244;-57
2022/05/31 02:56:15;;;;;;;2.20;2.00;;;;;20.70;100218.00;;;;2072044;28;20741;-57
2022/05/31 02:57:15;;;;;;;2.10;2.00;;;;;20.70;100221.00;;;;2079172;28;20275;-57
2022/05/31 02:58:15;;;;;;;1.93;1.83;;;;;20.80;100218.00;;;;2079719;28;20719;-57
2022/05/31 02:59:16;;;;;;;2.00;1.80;;;;;20.70;100216.00;;;;2079092;28;20323;-57
2022/05/31 03:00:16;;;;;;;2.43;2.07;;;;;20.70;100216.00;;;;2070983;28;20206;-61
2022/05/31 03:01:37;;;;;;;2.23;2.13;;;;;20.70;100224.00;;;;2079119;28;20225;-57
2022/05/31 03:02:38;;;;;;;2.00;1.90;;;;;20.70;100218.00;;;;2070812;28;20218;-59
2022/05/31 03:03:38;;;;;;;2.30;2.10;;;;;20.70;100217.00;;;;2070828;28;20577;-60
2022/05/31 03:04:39;;;;;;;1.90;1.80;;;;;20.70;100219.00;;;;2071672;28;20211;-59
2022/05/31 03:05:39;;;;;;;2.80;2.40;;;;;20.70;100220.00;;;;2071451;28;20245;-57
2022/05/31 03:06:40;;;;;;;2.30;2.10;;;;;20.70;100221.00;;;;2071665;28;20765;-57
2022/05/31 03:07:40;;;;;;;2.10;2.00;;;;;20.70;100225.00;;;;2078684;28;20873;-59
2022/05/31 03:08:41;;;;;;;1.60;1.50;;;;;20.70;100220.00;;;;2079714;28;20217;-62
2022/05/31 03:09:41;;;;;;;1.87;1.77;;;;;20.70;100218.00;;;;2079798;28;20218;-58
2022/05/31 03:10:44;;;;;;;2.13;2.00;;;;;20.70;100217.00;;;;2079646;28;20216;-57
2022/05/31 03:12:05;;;;;;;2.13;1.92;;;;;20.70;100225.00;;;;2070940;28;20659;-58
2022/05/31 03:13:06;;;;;;;1.63;1.52;;;;;20.70;100217.00;;;;2068634;28;20226;-57
2022/05/31 03:14:36;;;;;;;2.20;2.00;;;;;20.70;100212.00;;;;2070544;28;20698;-57
2022/05/31 03:15:37;;;;;;;1.92;1.83;;;;;20.70;100218.00;;;;2073060;28;20406;-58
2022/05/31 03:16:39;;;;;;;1.77;1.67;;;;;20.70;100216.00;;;;2070956;28;20596;-57
2022/05/31 03:17:55;;;;;;;2.03;1.92;;;;;20.70;100221.00;;;;2068994;28;20237;-56
2022/05/31 03:18:58;;;;;;;2.10;2.00;;;;;20.70;100214.00;;;;2054811;28;20222;-55
2022/05/31 03:20:22;;;;;;;2.00;1.90;;;;;20.70;100209.00;;;;2045928;28;20626;-59
2022/05/31 03:21:25;;;;;;;2.40;2.20;;;;;20.70;100212.00;;;;2042684;28;20735;-57
2022/05/31 03:22:28;;;;;;;2.17;1.90;;;;;20.70;100215.00;;;;2074852;28;20220;-57
2022/05/31 03:23:34;;;;;;;2.00;1.90;;;;;20.70;100222.00;;;;2077457;28;20637;-57
2022/05/31 03:24:38;;;;;;;2.10;2.00;;;;;20.70;100218.00;;;;2070047;28;20263;-58
2022/05/31 03:25:38;;;;;;;2.10;1.90;;;;;20.70;100212.00;;;;2064482;28;20594;-55
2022/05/31 03:26:40;;;;;;;2.37;2.17;;;;;20.70;100216.00;;;;2061050;28;20306;-58
2022/05/31 03:27:40;;;;;;;1.83;1.65;;;;;20.70;100218.00;;;;2061156;28;20250;-58
2022/05/31 03:28:41;;;;;;;2.10;1.90;;;;;20.70;100217.00;;;;2069086;28;20898;-57
2022/05/31 03:29:42;;;;;;;2.13;2.03;;;;;20.70;100215.00;;;;2069252;28;20816;-57
2022/05/31 03:30:43;;;;;;;1.85;1.75;;;;;20.70;100221.00;;;;2061339;28;20250;-58
2022/05/31 03:31:43;;;;;;;3.40;2.13;;;;;20.70;100214.00;;;;2060250;28;20226;-64
2022/05/31 03:32:43;;;;;;;1.83;1.73;;;;;20.70;100219.00;;;;2069004;28;20245;-62
2022/05/31 03:33:44;;;;;;;2.20;2.00;;;;;20.70;100213.00;;;;2061045;28;20245;-61
2022/05/31 03:34:44;;;;;;;1.90;1.80;;;;;20.70;100210.00;;;;2060862;28;20281;-56
2022/05/31 03:35:44;;;;;;;2.07;1.97;;;;;20.70;100212.00;;;;2068244;28;20268;-56
2022/05/31 03:36:45;;;;;;;1.90;1.80;;;;;20.70;100213.00;;;;2069556;28;20253;-57
2022/05/31 03:37:45;;;;;;;1.90;1.80;;;;;20.70;100213.00;;;;2070485;28;20213;-59
2022/05/31 03:38:45;;;;;;;2.13;1.90;;;;;20.70;100212.00;;;;2070683;28;20218;-60
2022/05/31 03:39:46;;;;;;;2.17;1.97;;;;;20.70;100210.00;;;;2069515;28;20256;-58
2022/05/31 03:41:01;;;;;;;2.43;2.10;;;;;20.70;100212.00;;;;2069732;28;20217;-60
2022/05/31 03:42:02;;;;;;;2.10;2.00;;;;;20.70;100214.00;;;;2060639;28;20206;-57
2022/05/31 03:43:03;;;;;;;1.70;1.60;;;;;20.70;100212.00;;;;2063822;28;20207;-55
2022/05/31 03:44:04;;;;;;;1.92;1.83;;;;;20.70;100214.00;;;;2069480;28;20227;-57
2022/05/31 03:45:05;;;;;;;1.80;1.70;;;;;20.70;100212.00;;;;2069813;28;20323;-58
2022/05/31 03:46:10;;;;;;;1.80;1.70;;;;;20.70;100211.00;;;;2069910;28;20686;-57
2022/05/31 03:47:10;;;;;;;1.60;1.50;;;;;20.70;100212.00;;;;2069605;28;20221;-57
2022/05/31 03:48:11;;;;;;;2.07;1.80;;;;;20.70;100210.00;;;;2061589;28;20221;-55
2022/05/31 03:49:11;;;;;;;1.90;1.70;;;;;20.70;100208.00;;;;2069542;28;20249;-58
2022/05/31 03:50:12;;;;;;;2.20;2.00;;;;;20.70;100210.00;;;;2070814;28;20240;-57
2022/05/31 03:51:12;;;;;;;2.20;2.00;;;;;20.70;100207.00;;;;2071241;28;20222;-58
2022/05/31 03:52:13;;;;;;;2.07;1.87;;;;;20.70;100211.00;;;;2071508;28;20224;-57
2022/05/31 03:53:13;;;;;;;1.70;1.60;;;;;20.70;100213.00;;;;2071434;28;20244;-56
2022/05/31 03:54:14;;;;;;;1.77;1.67;;;;;20.70;100211.00;;;;2071300;28;20218;-57
2022/05/31 03:55:14;;;;;;;1.83;1.73;;;;;20.70;100206.00;;;;2072170;28;20214;-57
2022/05/31 03:56:14;;;;;;;2.27;2.07;;;;;20.70;100207.00;;;;2070671;28;20241;-57
2022/05/31 03:57:17;;;;;;;2.10;2.00;;;;;20.70;100211.00;;;;2071406;28;20225;-57
2022/05/31 03:58:17;;;;;;;2.00;1.80;;;;;20.70;100209.00;;;;2063023;28;20217;-57
2022/05/31 03:59:18;;;;;;;2.43;1.80;;;;;20.70;100209.00;;;;2062972;28;20309;-56
2022/05/31 04:00:19;;;;;;;1.73;1.63;;;;;20.70;100209.00;;;;2072021;28;20604;-57
2022/05/31 04:01:19;;;;;;;2.13;1.97;;;;;20.70;100216.00;;;;2070978;28;20292;-60
2022/05/31 04:02:20;;;;;;;1.90;1.80;;;;;20.70;100209.00;;;;2071457;28;20408;-55
2022/05/31 04:03:20;;;;;;;1.70;1.60;;;;;20.70;100212.00;;;;2071584;28;20287;-56
2022/05/31 04:04:20;;;;;;;1.73;1.50;;;;;20.70;100208.00;;;;2071164;28;20252;-57
2022/05/31 04:05:21;;;;;;;1.80;1.70;;;;;20.70;100212.00;;;;2070817;28;20228;-57
2022/05/31 04:06:22;;;;;;;2.27;1.70;;;;;20.70;100213.00;;;;2072000;28;20241;-55
2022/05/31 04:07:22;;;;;;;1.90;1.80;;;;;20.70;100214.00;;;;2072016;28;20467;-57
2022/05/31 04:08:22;;;;;;;1.80;1.70;;;;;20.70;100210.00;;;;2072088;28;20207;-57
2022/05/31 04:09:23;;;;;;;1.80;1.70;;;;;20.70;100196.00;;;;2071998;28;20277;-56
2022/05/31 04:10:23;;;;;;;2.00;1.80;;;;;20.70;100209.00;;;;2072473;28;20294;-56
2022/05/31 04:11:24;;;;;;;2.17;1.97;;;;;20.70;100205.00;;;;2072202;28;20218;-56
2022/05/31 04:12:24;;;;;;;2.23;2.03;;;;;20.70;100213.00;;;;2064258;28;20226;-58
2022/05/31 04:13:25;;;;;;;1.70;1.60;;;;;20.70;100207.00;;;;2071189;28;20245;-57
2022/05/31 04:14:26;;;;;;;2.08;1.98;;;;;20.70;100205.00;;;;2071257;28;20222;-59
2022/05/31 04:15:26;;;;;;;2.00;1.80;;;;;20.70;100203.00;;;;2062498;28;20233;-58
2022/05/31 04:16:29;;;;;;;1.77;1.67;;;;;20.70;100203.00;;;;2071329;28;20226;-58
2022/05/31 04:17:30;;;;;;;2.03;1.90;;;;;20.70;100207.00;;;;2073138;28;20226;-57
2022/05/31 04:18:30;;;;;;;1.80;1.70;;;;;20.70;100201.00;;;;2079852;28;20562;-57
2022/05/31 04:19:31;;;;;;;1.67;1.57;;;;;20.70;100205.00;;;;2080116;28;20279;-58
2022/05/31 04:20:32;;;;;;;1.90;1.80;;;;;20.70;100199.00;;;;2079832;28;20210;-57
2022/05/31 04:21:32;;;;;;;2.30;2.03;;;;;20.70;100204.00;;;;2080145;28;20452;-58
2022/05/31 04:22:32;;;;;;;1.90;1.70;;;;;20.70;100205.00;;;;2080180;28;20498;-57
2022/05/31 04:24:54;;;;;;;2.00;1.90;;;;;20.70;100200.00;;;;2072647;28;20213;-58
2022/05/31 04:26:04;;;;;;;1.92;1.80;;;;;20.70;100204.00;;;;2079215;28;20268;-57
2022/05/31 04:27:04;;;;;;;2.10;1.90;;;;;20.70;100200.00;;;;2079821;28;20209;-57
2022/05/31 04:28:05;;;;;;;1.77;1.67;;;;;20.70;100200.00;;;;2079332;28;20206;-56
2022/05/31 04:29:05;;;;;;;1.57;1.47;;;;;20.70;100208.00;;;;2079568;28;20209;-58
2022/05/31 04:30:06;;;;;;;1.77;1.67;;;;;20.70;100204.00;;;;2078929;28;20712;-58
2022/05/31 04:31:07;;;;;;;2.20;2.10;;;;;20.70;100207.00;;;;2078200;28;20701;-57
2022/05/31 04:32:07;;;;;;;1.87;1.77;;;;;20.70;100202.00;;;;2069585;28;20469;-56
2022/05/31 04:33:07;;;;;;;2.10;1.80;;;;;20.70;100205.00;;;;2079118;28;20271;-58
2022/05/31 04:34:08;;;;;;;1.77;1.67;;;;;20.70;100192.00;;;;2080141;28;20580;-57
2022/05/31 04:35:08;;;;;;;1.87;1.77;;;;;20.70;100194.00;;;;2080104;28;20268;-57
2022/05/31 04:36:14;;;;;;;1.90;1.77;;;;;20.70;100198.00;;;;2074889;28;20603;-57
2022/05/31 04:37:14;;;;;;;1.90;1.70;;;;;20.70;100199.00;;;;2079198;28;20253;-56
2022/05/31 04:38:14;;;;;;;2.23;2.07;;;;;20.70;100198.00;;;;2080612;28;20232;-56
2022/05/31 04:39:15;;;;;;;1.90;1.80;;;;;20.70;100189.00;;;;2080133;28;20216;-58
2022/05/31 04:40:15;;;;;;;1.80;1.70;;;;;20.70;100204.00;;;;2080705;28;20283;-54
2022/05/31 04:41:21;;;;;;;2.20;2.00;;;;;20.50;100205.00;;;;2080783;28;20217;-59
2022/05/31 04:42:21;;;;;;;1.70;1.60;;;;;20.70;100198.00;;;;2074858;28;20333;-58
2022/05/31 04:43:22;;;;;;;1.97;1.87;;;;;20.70;100199.00;;;;2072643;28;20806;-55
2022/05/31 04:44:22;;;;;;;1.77;1.60;;;;;20.70;100201.00;;;;2071545;28;20218;-56
2022/05/31 04:45:23;;;;;;;1.93;1.83;;;;;20.70;100200.00;;;;2070458;28;20222;-55
2022/05/31 04:46:25;;;;;;;1.70;1.60;;;;;20.70;100201.00;;;;2070892;28;20234;-55
2022/05/31 04:47:26;;;;;;;2.08;1.98;;;;;20.70;100204.00;;;;2062977;28;20222;-56
2022/05/31 04:48:26;;;;;;;2.20;2.00;;;;;20.70;100204.00;;;;2063262;28;20769;-56
2022/05/31 04:49:26;;;;;;;1.90;1.80;;;;;20.70;100191.00;;;;2071577;28;20395;-58
2022/05/31 04:50:27;;;;;;;2.20;1.90;;;;;20.70;100190.00;;;;2079184;28;20598;-61
2022/05/31 04:51:30;;;;;;;1.80;1.67;;;;;20.70;100199.00;;;;2079997;28;20364;-58
2022/05/31 04:52:31;;;;;;;2.17;2.00;;;;;20.70;100200.00;;;;2080018;28;20213;-61
2022/05/31 04:53:31;;;;;;;2.00;1.90;;;;;20.70;100202.00;;;;2070253;28;20230;-59
2022/05/31 04:54:32;;;;;;;1.70;1.60;;;;;20.70;100202.00;;;;2070911;28;20206;-57
2022/05/31 04:55:32;;;;;;;1.70;1.60;;;;;20.70;100200.00;;;;2070979;28;20540;-61
2022/05/31 04:56:33;;;;;;;1.50;1.40;;;;;20.70;100192.00;;;;2071077;28;20218;-58
2022/05/31 04:57:35;;;;;;;1.77;1.67;;;;;20.70;100201.00;;;;2070782;28;20213;-57
2022/05/31 04:58:35;;;;;;;1.70;1.60;;;;;20.70;100205.00;;;;2068256;28;20516;-57
2022/05/31 04:59:36;;;;;;;2.10;2.00;;;;;20.70;100200.00;;;;2077326;28;20837;-58
2022/05/31 05:00:36;;;;;;;1.70;1.60;;;;;20.70;100205.00;;;;2078376;28;20771;-57
2022/05/31 05:01:37;;;;;;;1.87;1.77;;;;;20.70;100206.00;;;;2077998;28;20284;-56
2022/05/31 05:02:37;;;;;;;1.70;1.60;;;;;20.70;100197.00;;;;2078047;28;20221;-57
2022/05/31 05:03:37;;;;;;;2.33;1.80;;;;;20.70;100204.00;;;;2078574;28;20268;-57
2022/05/31 05:04:38;;;;;;;1.70;1.60;;;;;20.70;100202.00;;;;2077021;28;20248;-57
2022/05/31 05:05:38;;;;;;;2.17;2.00;;;;;20.70;100206.00;;;;2077599;28;20221;-57
2022/05/31 05:06:39;;;;;;;1.90;1.70;;;;;20.70;100203.00;;;;2078932;28;20213;-56
2022/05/31 05:07:39;;;;;;;2.20;1.70;;;;;20.70;100211.00;;;;2078083;28;20673;-56
2022/05/31 05:08:40;;;;;;;2.33;2.13;;;;;20.70;100213.00;;;;2070433;28;20284;-57
2022/05/31 05:09:40;;;;;;;1.53;1.43;;;;;20.70;100211.00;;;;2078297;28;20228;-57
2022/05/31 05:10:44;;;;;;;2.00;1.90;;;;;20.70;100214.00;;;;2078265;28;20233;-56
2022/05/31 05:11:46;;;;;;;2.42;1.70;;;;;20.70;100209.00;;;;2078476;28;20217;-56